Time;durP1;ratioP1;P1;durP2;ratioP2;P2;SDS_P1;SDS_P2;PMS_P1;PMS_P2;Temp;Humidity;BMP_temperature;BMP_pressure;BME280_temperature;BME280_humidity;BME280_pressure;Samples;Min_cycle;Max_cycle;Signal;HPM_P1;HPM_P2
2022/11/21 00:00:38;;;;;;;42.83;26.58;;;17.60;76.10;;;18.09;42.15;97956.94;5027110;28;20042;-76
2022/11/21 00:03:04;;;;;;;42.63;25.40;;;17.60;76.00;;;18.07;42.01;97942.78;5029272;28;20060;-76
2022/11/21 00:05:31;;;;;;;45.28;26.13;;;17.50;76.00;;;18.12;42.32;97948.03;5011719;28;20471;-76
2022/11/21 00:08:00;;;;;;;43.30;26.67;;;17.50;75.90;;;18.11;42.41;97939.00;5012692;28;20136;-76
2022/11/21 00:10:26;;;;;;;47.90;26.33;;;17.50;77.40;;;18.10;42.49;97944.84;4997939;28;20045;-75
2022/11/21 00:12:54;;;;;;;46.88;27.23;;;17.60;76.50;;;18.00;42.54;97938.66;5008287;28;20045;-75
2022/11/21 00:15:20;;;;;;;44.30;26.30;;;17.60;76.10;;;18.11;41.93;97949.16;5011720;28;20041;-75
2022/11/21 00:17:46;;;;;;;40.97;25.88;;;17.60;76.10;;;18.18;42.01;97950.19;5009451;28;20101;-76
2022/11/21 00:20:13;;;;;;;40.40;25.52;;;17.50;75.90;;;18.17;42.07;97945.06;5012044;28;20041;-76
2022/11/21 00:22:39;;;;;;;45.38;26.67;;;17.60;76.00;;;18.17;42.32;97936.84;5011759;28;20049;-75
2022/11/21 00:25:06;;;;;;;43.33;27.42;;;17.60;76.50;;;18.21;42.18;97938.53;5029797;28;20053;-76
2022/11/21 00:27:32;;;;;;;44.22;27.13;;;17.60;76.60;;;18.23;42.28;97932.69;5026325;28;20041;-76
2022/11/21 00:30:01;;;;;;;37.70;25.27;;;17.50;76.00;;;18.23;41.97;97943.69;5026472;28;20408;-75
2022/11/21 00:32:27;;;;;;;42.15;26.13;;;17.60;76.10;;;18.23;42.05;97935.44;5027842;28;20034;-76
2022/11/21 00:34:53;;;;;;;48.00;27.92;;;17.60;76.00;;;18.25;41.86;97933.16;4994358;28;20056;-75
2022/11/21 00:37:19;;;;;;;47.63;27.92;;;17.60;76.00;;;18.22;42.21;97928.38;5020692;28;20038;-75
2022/11/21 00:39:45;;;;;;;48.05;28.08;;;17.50;76.00;;;18.25;42.18;97918.63;5010435;28;20045;-75
2022/11/21 00:42:11;;;;;;;46.78;27.33;;;17.50;76.00;;;18.25;42.33;97922.19;5025807;28;20041;-75
2022/11/21 00:44:37;;;;;;;48.17;26.90;;;17.50;76.70;;;18.32;42.17;97922.41;5044990;28;20038;-76
2022/11/21 00:47:04;;;;;;;46.60;26.48;;;17.60;76.10;;;18.27;42.04;97922.63;5027061;28;20505;-76
2022/11/21 00:49:30;;;;;;;45.42;28.83;;;17.50;76.00;;;18.29;42.05;97920.31;5007459;28;20488;-75
2022/11/21 00:51:56;;;;;;;46.22;26.92;;;17.50;76.20;;;18.31;41.97;97909.81;5025040;28;20045;-75
2022/11/21 00:54:24;;;;;;;37.72;25.55;;;17.50;76.10;;;18.32;41.94;97911.41;5013479;28;20111;-76
2022/11/21 00:56:50;;;;;;;42.35;25.42;;;17.50;76.70;;;18.35;42.12;97904.44;5026213;28;20123;-76
2022/11/21 00:59:17;;;;;;;43.22;28.15;;;17.50;76.70;;;18.36;42.15;97906.03;5028174;28;20052;-75
2022/11/21 01:01:43;;;;;;;43.83;26.83;;;17.50;76.70;;;18.34;41.97;97898.16;5015372;28;20108;-75
2022/11/21 01:04:09;;;;;;;43.10;28.27;;;17.50;76.80;;;18.35;41.92;97902.47;5026689;28;20052;-75
2022/11/21 01:06:37;;;;;;;40.35;26.50;;;17.50;76.60;;;18.38;41.46;97896.28;5010325;28;20048;-75
2022/11/21 01:09:03;;;;;;;40.47;26.42;;;17.50;76.50;;;18.40;42.06;97890.47;5011097;28;20053;-75
2022/11/21 01:11:29;;;;;;;48.00;28.63;;;17.50;76.70;;;18.42;41.94;97890.94;5010513;28;20049;-75
2022/11/21 01:13:56;;;;;;;41.92;26.15;;;17.50;76.90;;;18.39;42.18;97880.63;5012022;28;20052;-75
2022/11/21 01:16:24;;;;;;;47.08;28.60;;;17.50;77.10;;;18.42;42.03;97880.72;5024176;28;20389;-75
2022/11/21 01:18:51;;;;;;;40.30;25.60;;;17.50;76.70;;;18.45;41.92;97884.72;5013906;28;20069;-75
2022/11/21 01:21:20;;;;;;;52.97;28.33;;;17.50;76.80;;;18.47;41.72;97881.63;5009755;28;20114;-75
2022/11/21 01:23:47;;;;;;;44.30;27.50;;;17.50;76.70;;;18.43;41.92;97879.56;5011617;28;20072;-75
2022/11/21 01:26:15;;;;;;;41.78;25.40;;;17.50;76.60;;;18.48;41.82;97881.28;4995367;28;20057;-75
2022/11/21 01:28:41;;;;;;;40.58;26.80;;;17.50;76.90;;;18.49;42.00;97885.63;5007937;28;20041;-75
2022/11/21 01:31:19;;;;;;;42.45;27.00;;;17.50;77.10;;;18.49;41.76;97887.56;5009254;28;20045;-75
2022/11/21 01:33:46;;;;;;;44.45;27.05;;;17.50;76.80;;;18.53;41.61;97885.75;5025893;28;20041;-75
2022/11/21 01:36:30;;;;;;;40.78;23.92;;;17.50;76.70;;;18.53;41.77;97889.28;5012058;28;20046;-75
2022/11/21 01:38:58;;;;;;;44.15;26.63;;;17.50;76.60;;;18.54;41.82;97901.84;5029530;28;21076;-75
2022/11/21 01:41:32;;;;;;;43.40;26.95;;;17.50;76.60;;;18.55;41.76;97891.69;5037702;28;20052;-75
2022/11/21 01:44:08;;;;;;;43.40;26.55;;;17.50;77.00;;;18.56;41.62;97896.03;5031780;28;20041;-74
2022/11/21 01:46:34;;;;;;;40.47;25.52;;;17.50;77.00;;;18.59;41.72;97893.38;5002640;28;20045;-75
2022/11/21 01:49:15;;;;;;;44.85;26.95;;;17.50;77.00;;;18.61;41.72;97906.75;5014720;28;20041;-75
2022/11/21 01:51:51;;;;;;;47.58;28.13;;;17.60;76.70;;;18.59;41.47;97904.34;5030006;28;20552;-75
2022/11/21 01:54:49;;;;;;;44.67;26.58;;;17.60;76.30;;;18.63;41.41;97898.97;5010303;28;20037;-74
2022/11/21 01:57:39;;;;;;;44.45;26.98;;;17.70;76.40;;;18.69;41.54;97900.31;5032553;28;20481;-75
2022/11/21 02:00:23;;;;;;;40.03;26.90;;;17.60;76.70;;;18.69;41.61;97897.56;5013905;28;20092;-75
2022/11/21 02:02:55;;;;;;;42.78;25.27;;;17.50;77.10;;;18.72;41.63;97899.63;5026272;28;20052;-74
2022/11/21 02:05:28;;;;;;;42.60;25.92;;;17.50;77.40;;;18.69;41.49;97903.06;5003037;28;20061;-74
2022/11/21 02:08:01;;;;;;;40.15;25.80;;;17.60;76.80;;;18.72;41.33;97907.84;5012808;28;20416;-75
2022/11/21 02:10:27;;;;;;;42.75;26.58;;;17.60;76.80;;;18.72;41.31;97907.06;5013555;28;20041;-74
2022/11/21 02:12:57;;;;;;;42.13;26.33;;;17.50;76.70;;;18.75;41.21;97912.72;5014282;28;20506;-75
2022/11/21 02:15:26;;;;;;;44.17;26.65;;;17.50;76.70;;;18.77;41.42;97913.13;5014927;28;20057;-74
2022/11/21 02:17:52;;;;;;;41.83;26.13;;;17.50;77.10;;;18.80;41.49;97911.63;5013896;28;20416;-75
2022/11/21 02:20:23;;;;;;;43.00;26.88;;;17.50;77.10;;;18.78;41.33;97912.00;5030278;28;20042;-75
2022/11/21 02:23:19;;;;;;;39.40;26.13;;;17.50;76.90;;;18.75;41.55;97923.69;5030620;28;20041;-75
2022/11/21 02:25:46;;;;;;;43.72;27.00;;;17.60;76.80;;;18.81;41.28;97919.53;5019482;28;20056;-75
2022/11/21 02:28:17;;;;;;;39.95;26.73;;;17.60;76.90;;;18.81;41.36;97918.75;4998040;28;20037;-75
2022/11/21 02:30:43;;;;;;;41.38;27.05;;;17.50;76.70;;;18.82;41.41;97923.88;4982533;28;20041;-75
2022/11/21 02:33:09;;;;;;;44.30;27.15;;;17.50;77.10;;;18.86;41.55;97919.28;5015067;28;20045;-75
2022/11/21 02:35:36;;;;;;;43.35;26.05;;;17.50;77.40;;;18.87;41.43;97906.34;5010698;28;20046;-75
2022/11/21 02:38:23;;;;;;;35.92;24.27;;;17.50;77.20;;;18.86;41.45;97902.81;4998973;28;20485;-75
2022/11/21 02:41:25;;;;;;;42.40;27.30;;;17.50;77.10;;;18.90;41.24;97896.59;5011899;28;20045;-75
2022/11/21 02:43:58;;;;;;;45.58;28.38;;;17.60;76.90;;;18.93;41.28;97898.63;5017319;28;20076;-75
2022/11/21 02:46:26;;;;;;;43.60;26.75;;;17.70;77.00;;;18.93;41.19;97899.47;4987438;28;20050;-75
2022/11/21 02:48:52;;;;;;;40.00;25.48;;;17.60;77.10;;;18.97;41.44;97897.59;4994538;28;20396;-75
2022/11/21 02:51:18;;;;;;;44.60;26.75;;;17.60;77.30;;;18.98;41.37;97895.63;5012472;28;20668;-75
2022/11/21 02:53:45;;;;;;;39.97;26.42;;;17.70;77.40;;;19.04;41.43;97889.53;5027441;28;20063;-75
2022/11/21 02:56:11;;;;;;;40.60;27.17;;;17.70;77.10;;;19.03;41.15;97895.38;5027944;28;20488;-75
2022/11/21 02:58:37;;;;;;;42.42;25.67;;;17.60;77.10;;;19.01;41.17;97892.22;5014591;28;20042;-75
2022/11/21 03:01:03;;;;;;;40.47;27.33;;;17.70;76.90;;;18.99;41.17;97889.00;5015721;28;20044;-75
2022/11/21 03:03:29;;;;;;;38.05;25.55;;;17.70;76.70;;;19.02;41.21;97888.31;5027948;28;20229;-75
2022/11/21 03:05:56;;;;;;;39.70;25.17;;;17.70;77.20;;;19.05;41.39;97884.84;5015215;28;20058;-75
2022/11/21 03:08:22;;;;;;;40.28;26.33;;;17.70;77.40;;;19.05;41.19;97893.09;5028780;28;20112;-75
2022/11/21 03:10:49;;;;;;;44.15;26.45;;;17.70;77.30;;;19.06;41.25;97895.50;4998103;28;20037;-75
2022/11/21 03:13:16;;;;;;;42.15;27.33;;;17.80;77.10;;;19.09;41.14;97888.50;5029728;28;20045;-75
2022/11/21 03:15:42;;;;;;;38.67;24.92;;;17.80;77.00;;;19.05;41.21;97882.88;5016509;28;20041;-75
2022/11/21 03:18:08;;;;;;;46.38;27.00;;;17.80;76.90;;;19.09;40.99;97880.25;5009454;28;20056;-74
2022/11/21 03:20:34;;;;;;;35.92;25.33;;;17.80;76.80;;;19.10;41.27;97881.84;5014538;28;20037;-75
2022/11/21 03:23:00;;;;;;;41.92;26.40;;;17.70;77.30;;;19.10;41.27;97873.59;5015515;28;20132;-75
2022/11/21 03:25:27;;;;;;;36.83;26.17;;;17.70;77.30;;;19.09;41.32;97878.28;5028384;28;20160;-75
2022/11/21 03:27:53;;;;;;;39.63;25.88;;;17.80;77.20;;;19.11;41.20;97864.22;5016149;28;20558;-75
2022/11/21 03:30:20;;;;;;;37.83;24.13;;;17.70;77.00;;;19.06;41.07;97861.72;5014269;28;20041;-75
2022/11/21 03:32:46;;;;;;;39.28;25.73;;;17.70;77.10;;;19.10;41.25;97857.09;5014770;28;20045;-75
2022/11/21 03:35:12;;;;;;;44.67;27.05;;;17.80;76.80;;;19.12;41.36;97863.03;4998844;28;20045;-75
2022/11/21 03:37:39;;;;;;;36.08;23.85;;;17.80;77.00;;;19.15;41.23;97854.09;4998813;28;20044;-75
2022/11/21 03:40:06;;;;;;;41.53;24.23;;;17.80;77.10;;;19.11;41.22;97849.66;5032125;28;20041;-75
2022/11/21 03:42:33;;;;;;;35.65;23.77;;;17.80;77.20;;;19.11;41.16;97849.66;5030460;28;20038;-75
2022/11/21 03:44:59;;;;;;;38.10;23.80;;;17.80;77.00;;;19.08;41.27;97846.47;5022629;28;20132;-75
2022/11/21 03:47:26;;;;;;;41.70;25.08;;;17.80;77.00;;;19.08;41.22;97837.41;5014710;28;20493;-75
2022/11/21 03:49:53;;;;;;;36.30;25.38;;;17.80;76.90;;;19.10;40.98;97846.09;5030030;28;20066;-75
2022/11/21 03:52:19;;;;;;;39.00;24.60;;;17.80;76.80;;;19.05;41.09;97844.41;5020631;28;20040;-75
2022/11/21 03:54:46;;;;;;;39.85;27.15;;;17.80;76.80;;;19.08;40.95;97842.91;5032280;28;20060;-75
2022/11/21 03:57:13;;;;;;;45.47;28.08;;;17.80;76.30;;;19.07;40.65;97846.81;5014021;28;20041;-75
2022/11/21 03:59:39;;;;;;;39.33;25.25;;;17.80;76.20;;;19.11;40.66;97841.41;5030163;28;20103;-75
2022/11/21 04:02:05;;;;;;;40.03;26.05;;;17.70;76.10;;;19.11;40.63;97850.47;5033042;28;20186;-75
2022/11/21 04:04:32;;;;;;;37.70;24.88;;;17.70;76.10;;;19.09;40.65;97844.53;5027563;28;20474;-75
2022/11/21 04:06:59;;;;;;;38.78;24.75;;;17.80;76.20;;;19.12;40.91;97837.53;5024646;28;20055;-75
2022/11/21 04:09:26;;;;;;;38.83;24.73;;;17.80;76.30;;;19.08;40.81;97849.22;4999497;28;20520;-74
2022/11/21 04:11:55;;;;;;;40.55;26.27;;;17.80;76.20;;;19.07;40.63;97846.81;5014843;28;20124;-75
2022/11/21 04:14:22;;;;;;;40.38;26.95;;;17.80;76.30;;;19.07;40.44;97857.81;5010257;28;20050;-75
2022/11/21 04:16:48;;;;;;;44.50;26.98;;;17.70;76.10;;;19.14;40.14;97849.75;5014121;28;20530;-75
2022/11/21 04:19:16;;;;;;;43.38;24.88;;;17.70;75.80;;;19.08;40.59;97845.66;4993740;28;20099;-74
2022/11/21 04:21:42;;;;;;;39.70;25.45;;;17.70;76.10;;;19.05;40.51;97838.91;5031069;28;20061;-75
2022/11/21 04:24:08;;;;;;;41.65;26.08;;;17.80;76.20;;;19.08;40.31;97842.91;4999522;28;20730;-75
2022/11/21 04:26:34;;;;;;;40.25;25.80;;;17.80;76.10;;;19.08;40.40;97840.97;5030288;28;20054;-75
2022/11/21 04:29:01;;;;;;;41.63;26.77;;;17.90;75.90;;;19.07;40.18;97846.81;5016578;28;20041;-75
2022/11/21 04:31:27;;;;;;;45.17;26.20;;;17.80;75.50;;;19.05;40.12;97835.38;5031410;28;20040;-75
2022/11/21 04:33:53;;;;;;;39.17;26.88;;;17.80;75.40;;;19.03;40.20;97838.50;5015206;28;20461;-75
2022/11/21 04:36:19;;;;;;;38.17;24.63;;;17.80;75.20;;;19.08;40.33;97842.91;5031288;28;20045;-75
2022/11/21 04:38:45;;;;;;;36.35;24.15;;;17.80;75.60;;;19.06;40.26;97842.47;5012036;28;20045;-75
2022/11/21 04:41:11;;;;;;;37.03;25.60;;;17.80;75.60;;;19.05;40.27;97832.63;5027049;28;20439;-75
2022/11/21 04:43:37;;;;;;;43.53;27.33;;;17.80;75.60;;;19.04;40.21;97831.03;5012521;28;20041;-75
2022/11/21 04:46:03;;;;;;;35.80;24.77;;;17.80;75.10;;;19.03;40.13;97829.44;5028211;28;20063;-75
2022/11/21 04:48:31;;;;;;;39.25;26.35;;;17.80;74.90;;;18.99;39.91;97829.34;4994314;28;20098;-75
2022/11/21 04:51:00;;;;;;;41.00;27.02;;;17.80;74.80;;;19.01;40.02;97840.00;5012409;28;20421;-74
2022/11/21 04:53:27;;;;;;;37.40;25.92;;;17.80;75.10;;;19.04;40.36;97845.56;5026688;28;20059;-76
2022/11/21 04:55:54;;;;;;;36.58;25.58;;;17.80;75.50;;;19.01;40.14;97826.25;4994673;28;20046;-75
2022/11/21 04:58:20;;;;;;;39.97;25.52;;;17.80;75.40;;;19.00;40.02;97830.13;5026914;28;20052;-76
2022/11/21 05:00:46;;;;;;;40.90;26.85;;;17.80;75.00;;;19.01;39.89;97821.56;5012470;28;20033;-76
2022/11/21 05:03:12;;;;;;;40.40;25.35;;;17.80;74.90;;;19.00;40.10;97822.69;5012279;28;20477;-76
2022/11/21 05:05:38;;;;;;;40.90;26.45;;;17.80;74.80;;;19.02;39.75;97827.84;5011901;28;20072;-76
2022/11/21 05:08:05;;;;;;;40.20;26.58;;;17.70;74.70;;;19.00;40.17;97828.19;5028791;28;20041;-76
2022/11/21 05:13:19;;;;;;;37.53;25.38;;;17.70;75.10;;;19.00;40.07;97825.44;5008215;28;20068;-75
2022/11/21 05:13:20;;;;;;;38.72;24.90;;;17.70;75.10;;;18.98;40.08;97826.94;5026520;28;20042;-76
2022/11/21 05:15:50;;;;;;;42.33;28.05;;;17.80;75.10;;;18.98;40.00;97818.69;5011280;28;20397;-76
2022/11/21 05:18:18;;;;;;;35.33;24.58;;;17.80;74.80;;;18.97;39.84;97825.34;5014897;28;20052;-76
2022/11/21 05:20:44;;;;;;;43.65;26.65;;;17.80;74.70;;;18.96;39.86;97819.06;5012582;28;20536;-78
2022/11/21 05:23:10;;;;;;;44.70;27.00;;;17.80;74.50;;;18.97;39.85;97814.34;4997050;28;20033;-78
2022/11/21 05:25:36;;;;;;;39.78;26.42;;;17.80;74.50;;;18.98;40.04;97815.94;5009672;28;20462;-79
2022/11/21 05:28:03;;;;;;;40.88;27.25;;;17.80;74.80;;;18.99;40.12;97806.56;5026950;28;20389;-76
2022/11/21 05:30:29;;;;;;;49.38;28.25;;;17.80;74.90;;;18.97;39.92;97808.88;5010354;28;20042;-76
2022/11/21 05:32:55;;;;;;;42.28;26.45;;;17.90;74.40;;;18.91;39.82;97799.28;5009206;28;20045;-76
2022/11/21 05:35:21;;;;;;;46.45;27.33;;;17.90;74.20;;;18.94;39.71;97809.56;5028157;28;20079;-76
2022/11/21 05:37:47;;;;;;;49.67;30.55;;;17.80;74.20;;;18.90;39.65;97794.94;4995507;28;20049;-76
2022/11/21 05:40:13;;;;;;;43.35;29.35;;;17.80;74.10;;;18.93;39.72;97796.97;5026468;28;20064;-76
2022/11/21 05:45:27;;;;;;;43.65;28.48;;;17.80;74.50;;;18.90;39.69;97787.47;5030254;28;20073;-76
2022/11/21 05:47:53;;;;;;;43.22;28.60;;;17.80;74.50;;;18.86;39.89;97786.59;5014170;28;20052;-76
2022/11/21 05:50:19;;;;;;;47.75;28.20;;;17.80;74.20;;;18.86;39.74;97790.16;5014374;28;20038;-76
2022/11/21 05:52:45;;;;;;;43.17;29.48;;;17.80;74.10;;;18.91;39.66;97789.09;5009469;28;20040;-76
2022/11/21 05:55:11;;;;;;;45.90;28.08;;;17.80;73.90;;;18.85;39.61;97774.81;5009540;28;20068;-76
2022/11/21 05:57:40;;;;;;;47.17;31.23;;;17.80;73.80;;;18.85;39.71;97777.56;5027688;28;20465;-76
2022/11/21 06:00:07;;;;;;;46.03;28.52;;;17.80;73.80;;;18.86;39.58;97781.91;5012909;28;20041;-76
2022/11/21 06:05:18;;;;;;;36.17;26.48;;;17.80;73.90;;;18.88;39.56;97784.31;5025619;28;20124;-76
2022/11/21 06:07:44;;;;;;;42.97;27.52;;;17.80;74.00;;;18.86;39.94;97781.91;5028600;28;20038;-76
2022/11/21 06:10:11;;;;;;;50.05;28.98;;;17.80;74.20;;;18.87;39.77;97778.00;5009210;28;20033;-76
2022/11/21 06:12:40;;;;;;;46.50;29.05;;;17.80;74.10;;;18.89;39.42;97779.59;5011640;28;20041;-77
2022/11/21 06:15:07;;;;;;;40.95;25.88;;;17.80;74.00;;;18.87;39.66;97783.50;5013158;28;20045;-77
2022/11/21 06:17:33;;;;;;;47.72;28.73;;;17.80;74.00;;;18.83;39.72;97785.38;4995785;28;20043;-77
2022/11/21 06:19:59;;;;;;;42.00;27.20;;;17.80;73.90;;;18.83;39.85;97776.34;5011987;28;20079;-77
2022/11/21 06:22:26;;;;;;;40.83;26.85;;;17.80;74.10;;;18.84;39.98;97772.41;5027183;28;20141;-76
2022/11/21 06:24:52;;;;;;;42.55;27.38;;;17.80;74.40;;;18.82;40.30;97764.53;5025076;28;20534;-75
2022/11/21 06:27:18;;;;;;;42.95;27.33;;;17.70;74.70;;;18.89;39.83;97760.38;5013419;28;20041;-75
2022/11/21 06:29:44;;;;;;;46.13;29.40;;;17.90;74.20;;;18.85;39.91;97758.34;4995111;28;20059;-76
2022/11/21 06:32:10;;;;;;;41.85;28.92;;;17.90;74.10;;;18.85;39.89;97763.84;4994378;28;20104;-76
2022/11/21 06:34:36;;;;;;;43.88;28.17;;;17.90;74.00;;;18.85;39.83;97758.34;5027803;28;20258;-76
2022/11/21 06:37:02;;;;;;;47.47;29.73;;;17.90;74.00;;;18.86;40.07;97765.41;5025908;28;20444;-76
2022/11/21 06:39:29;;;;;;;46.42;27.67;;;17.90;74.30;;;18.86;40.01;97759.94;5021353;28;20377;-76
2022/11/21 06:41:55;;;;;;;41.60;28.00;;;17.90;74.40;;;18.89;39.75;97771.38;5025567;28;20041;-76
2022/11/21 06:44:21;;;;;;;45.55;28.77;;;17.90;74.10;;;18.84;39.89;97767.72;5008972;28;20095;-76
2022/11/21 06:46:47;;;;;;;43.13;29.27;;;17.90;74.10;;;18.86;39.95;97778.38;5026109;28;20057;-76
2022/11/21 06:49:13;;;;;;;37.97;27.58;;;17.80;74.00;;;18.85;39.67;97780.31;5023609;28;20503;-76
2022/11/21 06:51:39;;;;;;;49.28;28.25;;;17.90;73.90;;;18.87;39.77;97783.50;5025050;28;20041;-75
2022/11/21 06:54:05;;;;;;;41.88;28.95;;;17.80;74.20;;;18.89;39.92;97779.59;5009077;28;20055;-75
2022/11/21 06:56:31;;;;;;;43.00;29.55;;;17.90;74.40;;;18.86;40.07;97779.16;5023910;28;20041;-75
2022/11/21 06:58:57;;;;;;;47.28;28.85;;;17.80;74.30;;;18.87;39.85;97777.19;5027004;28;20531;-75
2022/11/21 07:01:24;;;;;;;46.03;28.75;;;17.90;74.10;;;18.89;39.96;97780.41;5011331;28;20038;-79
2022/11/21 07:03:50;;;;;;;38.15;26.48;;;18.00;74.10;;;18.81;40.30;97779.41;5011218;28;20580;-74
2022/11/21 07:06:17;;;;;;;39.13;26.38;;;17.90;74.40;;;18.87;40.02;97769.75;5024045;28;20049;-75
2022/11/21 07:08:43;;;;;;;44.08;28.55;;;18.00;74.10;;;18.89;40.17;97768.63;5008356;28;20053;-75
2022/11/21 07:11:11;;;;;;;42.78;26.50;;;18.00;74.30;;;18.89;40.30;97779.59;5007296;28;20037;-75
2022/11/21 07:13:37;;;;;;;41.05;26.60;;;18.00;74.60;;;18.89;40.14;97779.59;5010539;28;20075;-75
2022/11/21 07:16:09;;;;;;;41.05;26.13;;;18.00;74.50;;;18.85;40.23;97774.81;5010256;28;20057;-75
2022/11/21 07:18:35;;;;;;;41.47;27.65;;;17.90;74.00;;;18.87;40.13;97764.25;5011975;28;20049;-76
2022/11/21 07:21:03;;;;;;;42.10;26.50;;;18.00;74.10;;;18.85;39.90;97763.00;5017426;28;20422;-76
2022/11/21 07:23:30;;;;;;;40.78;27.08;;;18.00;73.90;;;18.86;39.90;97770.13;5010668;28;20152;-75
2022/11/21 07:26:03;;;;;;;39.58;25.45;;;18.00;74.00;;;18.87;40.02;97766.22;5025164;28;20053;-74
2022/11/21 07:28:30;;;;;;;41.53;26.35;;;18.00;74.60;;;18.82;40.27;97756.28;5010445;28;20041;-74
2022/11/21 07:30:57;;;;;;;38.88;24.85;;;18.00;74.30;;;18.83;40.06;97760.63;5013886;28;20048;-76
2022/11/21 07:33:22;;;;;;;39.65;26.35;;;18.00;74.00;;;18.84;40.06;97756.72;5014635;28;20049;-76
2022/11/21 07:35:49;;;;;;;45.83;28.00;;;18.00;73.90;;;18.89;39.86;97755.69;5022254;28;20042;-76
2022/11/21 07:38:15;;;;;;;40.80;27.63;;;18.00;73.90;;;18.81;40.07;97745.66;5021761;28;20056;-76
2022/11/21 07:40:41;;;;;;;36.60;24.80;;;17.90;73.90;;;18.84;39.89;97740.25;5020566;28;20087;-76
2022/11/21 07:43:08;;;;;;;39.90;26.63;;;18.00;74.00;;;18.89;39.86;97738.41;5025221;28;20045;-76
2022/11/21 07:45:35;;;;;;;40.53;25.63;;;18.00;74.10;;;18.89;39.80;97730.94;4993763;28;20554;-76
2022/11/21 07:48:03;;;;;;;36.42;25.60;;;18.00;74.10;;;18.89;39.56;97741.16;5007021;28;20037;-76
2022/11/21 07:50:29;;;;;;;41.50;25.67;;;18.00;73.60;;;18.85;39.57;97733.63;5007690;28;20045;-76
2022/11/21 07:53:04;;;;;;;38.70;26.30;;;18.00;73.30;;;18.85;39.56;97730.88;5011086;28;20481;-76
2022/11/21 07:55:31;;;;;;;38.45;26.35;;;18.00;73.20;;;18.89;39.16;97732.91;5010191;28;20044;-76
2022/11/21 07:58:07;;;;;;;44.42;26.25;;;18.00;73.10;;;18.87;39.40;97731.28;5004558;28;20068;-75
2022/11/21 08:00:35;;;;;;;38.45;24.77;;;18.00;73.20;;;18.86;39.68;97729.69;5007763;28;20451;-76
2022/11/21 08:03:03;;;;;;;36.15;23.77;;;18.00;73.40;;;18.85;39.51;97719.06;5024949;28;20049;-78
2022/11/21 08:05:29;;;;;;;37.95;24.08;;;18.00;73.30;;;18.82;39.40;97714.28;4993104;28;20075;-75
2022/11/21 08:07:55;;;;;;;39.95;26.58;;;18.00;72.90;;;18.83;39.25;97711.19;5024183;28;20042;-76
2022/11/21 08:10:21;;;;;;;39.60;26.00;;;18.10;72.60;;;18.84;39.11;97709.22;5009473;28;20049;-76
2022/11/21 08:12:47;;;;;;;38.85;26.52;;;18.00;72.50;;;18.84;39.15;97718.25;5024621;28;20136;-75
2022/11/21 08:15:13;;;;;;;38.50;25.75;;;18.00;72.70;;;18.84;39.55;97709.22;5010273;28;20046;-75
2022/11/21 08:17:39;;;;;;;39.22;24.85;;;18.00;73.20;;;18.79;39.73;97710.28;5023338;28;20151;-75
2022/11/21 08:20:07;;;;;;;38.20;25.92;;;18.00;73.20;;;18.84;39.29;97701.78;4993075;28;20037;-75
2022/11/21 08:22:38;;;;;;;37.15;24.77;;;18.00;72.70;;;18.86;39.07;97702.22;5005961;28;20580;-75
2022/11/21 08:25:05;;;;;;;39.05;24.92;;;18.00;72.50;;;18.84;39.09;97707.28;5011042;28;20041;-76
2022/11/21 08:27:31;;;;;;;41.60;26.23;;;18.00;72.50;;;18.82;38.99;97701.34;5003861;28;20532;-75
2022/11/21 08:29:57;;;;;;;40.55;26.58;;;18.00;72.50;;;18.87;38.99;97695.56;5024980;28;20104;-74
2022/11/21 08:32:23;;;;;;;35.28;24.58;;;18.00;72.30;;;18.84;38.75;97701.78;5004013;28;20050;-74
2022/11/21 08:34:50;;;;;;;36.38;23.77;;;18.00;72.20;;;18.82;39.23;97700.53;5024920;28;20053;-73
2022/11/21 08:37:15;;;;;;;43.47;25.77;;;18.10;72.60;;;18.82;39.16;97698.59;5009320;28;20041;-73
2022/11/21 08:39:42;;;;;;;38.63;24.52;;;18.10;72.40;;;18.83;38.97;97689.22;5020813;28;20481;-75
2022/11/21 08:42:09;;;;;;;37.50;25.23;;;18.10;72.30;;;18.83;38.96;97705.69;5024252;28;20138;-74
2022/11/21 08:44:35;;;;;;;35.97;24.63;;;18.10;72.20;;;18.82;39.59;97698.59;5019701;28;20077;-78
2022/11/21 08:47:02;;;;;;;36.08;25.58;;;18.10;72.60;;;18.84;39.06;97701.78;4992611;28;20052;-75
2022/11/21 08:49:28;;;;;;;37.40;23.90;;;18.00;72.60;;;18.86;39.46;97699.47;5022474;28;20037;-75
2022/11/21 08:51:54;;;;;;;33.47;23.85;;;18.10;73.20;;;18.81;39.57;97697.00;5008726;28;20540;-76
2022/11/21 08:54:22;;;;;;;37.17;24.13;;;18.10;72.70;;;18.79;39.57;97687.53;5004290;28;20123;-75
2022/11/21 08:56:49;;;;;;;33.60;23.80;;;18.10;72.60;;;18.80;39.48;97689.09;5006971;28;20049;-75
2022/11/21 08:59:16;;;;;;;37.58;24.23;;;18.20;72.60;;;18.83;39.26;97700.19;4992212;28;20056;-75
2022/11/21 09:01:42;;;;;;;39.13;24.85;;;18.10;72.40;;;18.84;39.70;97701.00;5020198;28;20045;-75
2022/11/21 09:04:09;;;;;;;32.83;22.02;;;18.20;72.90;;;18.87;39.88;97692.81;5006516;28;20057;-75
2022/11/21 09:06:35;;;;;;;35.65;23.00;;;18.10;73.20;;;18.90;39.66;97698.75;5022549;28;20083;-76
2022/11/21 09:09:01;;;;;;;36.78;24.30;;;18.10;73.20;;;18.84;39.76;97690.00;5008489;28;20072;-75
2022/11/21 09:11:27;;;;;;;34.22;23.52;;;18.10;73.00;;;18.87;39.49;97697.53;5022429;28;20048;-75
2022/11/21 09:19:26;;;;;;;34.05;23.05;;;18.20;73.00;;;18.85;39.74;97689.66;5008118;28;20044;-75
2022/11/21 09:21:52;;;;;;;35.03;21.85;;;18.20;73.40;;;18.84;40.09;97693.53;5001245;28;20172;-75
2022/11/21 09:24:18;;;;;;;33.58;22.88;;;18.20;73.70;;;18.79;40.00;97693.00;5028566;28;20373;-75
2022/11/21 09:26:44;;;;;;;34.92;22.88;;;18.20;73.30;;;18.81;39.93;97697.00;5024573;28;20057;-75
2022/11/21 09:29:13;;;;;;;37.17;23.65;;;18.20;73.40;;;18.82;39.78;97700.53;5006378;28;20500;-75
2022/11/21 09:31:40;;;;;;;33.17;23.48;;;18.20;73.20;;;18.79;39.75;97695.75;5007610;28;20046;-75
2022/11/21 09:34:07;;;;;;;34.58;22.85;;;18.20;73.00;;;18.78;40.02;97696.94;5009173;28;20068;-75
2022/11/21 09:36:33;;;;;;;30.52;20.88;;;18.20;73.40;;;18.78;40.28;97696.94;5008296;28;20037;-74
2022/11/21 09:38:59;;;;;;;37.20;22.85;;;18.20;73.80;;;18.78;40.47;97696.94;5022419;28;20099;-74
2022/11/21 09:41:52;;;;;;;32.90;22.77;;;18.20;73.80;;;18.78;40.41;97689.47;5025226;28;20053;-74
2022/11/21 09:44:56;;;;;;;35.33;23.05;;;18.20;73.60;;;18.85;40.18;97688.84;5024482;28;20045;-74
2022/11/21 09:47:34;;;;;;;36.40;23.05;;;18.20;73.30;;;18.84;39.89;97685.28;5023969;28;20046;-74
2022/11/21 09:50:11;;;;;;;36.97;22.02;;;18.20;73.20;;;18.76;40.70;97689.03;5009325;28;20041;-73
2022/11/21 09:52:55;;;;;;;33.45;21.27;;;18.20;73.80;;;18.84;40.16;97688.03;5011575;28;20080;-73
2022/11/21 09:55:54;;;;;;;31.15;21.95;;;18.20;73.50;;;18.79;39.99;97682.03;5007818;28;20419;-73
2022/11/21 09:59:05;;;;;;;34.20;21.40;;;18.20;73.30;;;18.79;39.60;97680.06;5039520;28;20047;-73
2022/11/21 10:01:31;;;;;;;32.38;21.90;;;18.20;73.00;;;18.86;39.21;97679.47;5026419;28;20060;-73
2022/11/21 10:03:57;;;;;;;33.22;22.58;;;18.10;72.60;;;18.83;39.52;97677.44;5027474;28;20099;-73
2022/11/21 10:06:26;;;;;;;28.52;21.15;;;18.10;72.70;;;18.84;39.60;97679.00;5005146;28;20049;-73
2022/11/21 10:09:23;;;;;;;35.05;21.92;;;18.20;72.90;;;18.81;39.98;97677.78;5027310;28;20469;-73
2022/11/21 10:15:21;;;;;;;33.53;22.15;;;18.20;73.10;;;18.82;39.72;97676.59;5026276;28;20076;-73
2022/11/21 10:18:38;;;;;;;32.63;23.33;;;18.30;73.00;;;18.84;39.79;97676.25;5027468;28;20049;-73
2022/11/21 10:21:38;;;;;;;30.30;21.20;;;18.30;72.90;;;18.75;40.15;97670.97;5036410;28;20606;-73
2022/11/21 10:24:25;;;;;;;29.73;21.20;;;18.20;72.80;;;18.77;40.08;97665.88;5024201;28;20045;-73
2022/11/21 10:27:40;;;;;;;27.48;19.77;;;18.20;73.20;;;18.80;40.03;97667.94;5043009;28;20049;-73